Terminal Aerodrome Forecast
Issued by NWS Twin Cities, MN

Home | Current Version | Previous Version | Graphics & Text | Print | Product List | Glossary On
Versions: 1 2 3 4 5 6 7 8 9 10 11 12 13 14 15 16 17 18 19 20 21 22 23 24 25 26
000
FTUS43 KMPX 110200 AAA
TAFMSP
TAF AMD
KMSP 110247Z 1103/1206 16009KT P6SM VCSH SCT050 BKN090 OVC250
      TEMPO 1111/1114 4SM TSRA OVC035CB
     FM111400 19011KT P6SM -SHRA BKN040 OVC080
     FM111700 21010KT P6SM BKN035 OVC060 PROB30 1200/1206 4SM TSRA
      BKN025CB=

USA.gov is the U.S. government's official web portal to all federal, state and local government web resources and services.